Time;durP1;ratioP1;P1;durP2;ratioP2;P2;SDS_P1;SDS_P2;PMS_P1;PMS_P2;Temp;Humidity;BMP_temperature;BMP_pressure;BME280_temperature;BME280_humidity;BME280_pressure;Samples;Min_cycle;Max_cycle;Signal;HPM_P1;HPM_P2
2023/03/24 00:02:50;;;;;;;;;;;;;;;;;;;;;
2023/03/24 00:10:56;;;;;;;;;;;;;;;;;;;;;
2023/03/24 00:14:27;;;;;;;;;;;;;;;;;;;;;
2023/03/24 00:17:35;;;;;;;11.70;5.50;;;;;;;13.39;55.03;98577.42;107527;1263;95801;-78
2023/03/24 00:21:10;;;;;;;;;;;;;;;;;;;;;
2023/03/24 00:24:50;;;;;;;;;;;;;;;;;;;;;
2023/03/24 00:33:51;;;;;;;;;;;;;;;;;;;;;
2023/03/24 00:35:54;;;;;;;11.40;5.20;;;;;;;13.04;55.06;98578.50;106918;1276;95846;-76
2023/03/24 00:39:41;;;;;;;13.50;5.20;;;;;;;12.95;55.01;98569.85;107555;1271;95759;-79
2023/03/24 00:43:22;;;;;;;;;;;;;;;;;;;;;
2023/03/24 00:47:16;;;;;;;;;;;;;;;;;;;;;
2023/03/24 00:54:47;;;;;;;11.30;5.40;;;;;;;12.77;55.21;98557.56;106813;1277;96253;-78
2023/03/24 00:58:50;;;;;;;;;;;;;;;;;;;;;
2023/03/24 01:11:01;;;;;;;10.10;5.00;;;;;;;12.76;55.46;98554.60;107385;1260;107721;-78
2023/03/24 01:14:36;;;;;;;12.10;5.50;;;;;;;12.78;55.38;98555.16;107980;1259;95792;-78
2023/03/24 01:18:13;;;;;;;12.60;5.20;;;;;;;12.83;55.48;98554.93;107641;1267;95694;-78
2023/03/24 01:21:29;;;;;;;14.30;5.20;;;;;;;12.86;55.47;98557.67;107591;1267;111882;-78
2023/03/24 01:24:59;;;;;;;11.80;5.10;;;;;;;12.85;55.47;98557.03;108113;1260;100759;-79
2023/03/24 01:28:47;;;;;;;11.60;5.30;;;;;;;12.85;55.55;98556.65;108583;1253;107962;-78
2023/03/24 01:31:29;;;;;;;10.80;4.90;;;;;;;12.87;55.51;98554.23;108355;1255;95883;-78
2023/03/24 01:35:31;;;;;;;;;;;;;;;;;;;;;
2023/03/24 01:38:57;;;;;;;12.20;5.00;;;;;;;12.87;55.69;98560.38;108606;1254;110386;-78
2023/03/24 01:46:36;;;;;;;12.00;4.90;;;;;;;12.86;55.76;98557.45;108063;1264;107763;-79
2023/03/24 01:50:04;;;;;;;13.60;5.50;;;;;;;12.87;55.71;98555.04;107930;1264;95638;-78
2023/03/24 01:53:20;;;;;;;10.10;4.60;;;;;;;12.87;55.77;98557.56;108101;1260;95670;-78
2023/03/24 01:56:35;;;;;;;10.40;4.90;;;;;;;12.87;55.74;98556.14;108490;1254;111591;-78
2023/03/24 02:00:25;;;;;;;;;;;;;;;;;;;;;
2023/03/24 02:03:41;;;;;;;11.70;5.00;;;;;;;12.87;55.87;98558.97;108444;1254;107737;-78
2023/03/24 02:07:04;;;;;;;13.70;5.40;;;;;;;12.84;55.72;98563.66;108174;1260;95800;-78
2023/03/24 02:10:54;;;;;;;11.60;5.80;;;;;;;12.81;55.84;98562.71;107624;1266;95714;-78
2023/03/24 02:14:39;;;;;;;11.40;4.90;;;;;;;12.78;55.88;98561.05;107910;1261;111134;-78
2023/03/24 02:18:27;;;;;;;11.40;4.90;;;;;;;12.76;55.82;98557.49;108052;1257;102442;-79
2023/03/24 02:26:03;;;;;;;11.80;5.20;;;;;;;12.72;56.00;98559.60;109038;1247;95598;-78
2023/03/24 02:29:38;;;;;;;13.60;4.90;;;;;;;12.69;56.03;98558.96;108661;1251;95782;-79
2023/03/24 02:38:10;;;;;;;;;;;;;;;;;;;;;
2023/03/24 02:41:22;;;;;;;;;;;;;;;;;;;;;
2023/03/24 02:50:12;;;;;;;10.70;4.60;;;;;;;12.60;56.01;98554.66;108086;1264;95744;-78
2023/03/24 02:54:11;;;;;;;;;;;;;;;;;;;;;
2023/03/24 02:57:43;;;;;;;10.10;4.40;;;;;;;12.55;56.16;98565.21;108096;1257;101928;-79
2023/03/24 03:01:37;;;;;;;11.20;4.40;;;;;;;12.53;56.15;98563.95;108742;1252;107837;-78
2023/03/24 03:05:57;;;;;;;;;;;;;;;;;;;;;
2023/03/24 03:09:06;;;;;;;11.70;4.90;;;;;;;12.41;56.16;98560.55;108575;1253;95676;-78
2023/03/24 03:12:37;;;;;;;12.10;5.10;;;;;;;12.35;56.18;98556.27;108852;1248;111629;-78
2023/03/24 03:16:06;;;;;;;;;;;;;;;;;;;;;
2023/03/24 03:19:42;;;;;;;;;;;;;;;;;;;;;
2023/03/24 03:23:31;;;;;;;;;;;;;;;;;;;;;
2023/03/24 03:27:23;;;;;;;;;;;;;;;;;;;;;
2023/03/24 03:31:09;;;;;;;;;;;;;;;;;;;;;
2023/03/24 03:34:46;;;;;;;15.70;4.80;;;;;;;11.87;56.35;98555.39;108699;1253;99645;-78
2023/03/24 03:38:05;;;;;;;12.80;4.70;;;;;;;11.83;56.30;98553.15;108371;1253;108038;-78
2023/03/24 03:41:15;;;;;;;11.20;4.80;;;;;;;11.78;56.39;98551.98;108384;1254;95758;-78
2023/03/24 03:44:49;;;;;;;11.00;4.80;;;;;;;11.72;56.31;98541.82;108517;1253;95788;-78
2023/03/24 03:48:45;;;;;;;;;;;;;;;;;;;;;
2023/03/24 03:52:19;;;;;;;;;;;;;;;;;;;;;
2023/03/24 03:56:48;;;;;;;;;;;;;;;;;;;;;
2023/03/24 04:00:16;;;;;;;;;;;;;;;;;;;;;
2023/03/24 04:03:26;;;;;;;13.10;4.90;;;;;;;11.55;56.62;98537.55;107946;1264;96171;-79
2023/03/24 04:06:35;;;;;;;13.30;4.80;;;;;;;11.52;56.73;98542.06;108021;1260;110815;-79
2023/03/24 04:10:35;;;;;;;;;;;;;;;;;;;;;
2023/03/24 04:14:09;;;;;;;13.10;5.60;;;;;;;11.50;56.74;98540.84;108197;1258;106697;-78
2023/03/24 04:17:43;;;;;;;16.10;5.50;;;;;;;11.52;56.85;98540.86;108262;1258;95785;-78
2023/03/24 04:21:47;;;;;;;;;;;;;;;;;;;;;
2023/03/24 04:25:33;;;;;;;12.90;4.60;;;;;;;11.56;56.95;98545.25;108627;1254;111996;-77
2023/03/24 04:28:31;;;;;;;15.50;6.10;;;;;;;11.58;57.00;98536.59;108924;1247;101448;-78
2023/03/24 04:36:24;;;;;;;13.20;5.10;;;;;;;11.64;57.18;98538.02;109145;1249;95679;-78
2023/03/24 04:39:28;;;;;;;13.60;5.50;;;;;;;11.66;57.08;98537.46;108507;1255;96809;-78
2023/03/24 04:43:37;;;;;;;;;;;;;;;;;;;;;
2023/03/24 04:52:05;;;;;;;;;;;;;;;;;;;;;
2023/03/24 05:05:38;;;;;;;;;;;;;;;;;;;;;
2023/03/24 05:13:28;;;;;;;;;;;;;;;;;;;;;
2023/03/24 05:17:25;;;;;;;;;;;;;;;;;;;;;
2023/03/24 05:21:56;;;;;;;;;;;;;;;;;;;;;
2023/03/24 05:31:29;;;;;;;16.20;5.30;;;;;;;12.46;57.57;98527.94;106327;1273;108033;-79
2023/03/24 05:58:47;;;;;;;12.70;5.40;;;;;;;12.67;57.59;98519.67;106510;1275;96096;-78
2023/03/24 06:01:29;;;;;;;14.00;5.70;;;;;;;12.68;57.58;98524.58;106792;1269;111661;-73
2023/03/24 06:03:55;;;;;;;9.90;5.10;;;;;;;12.71;57.58;98525.05;107846;1266;97179;-73
2023/03/24 06:06:22;;;;;;;13.90;5.50;;;;;;;12.75;57.64;98530.48;107911;1265;95815;-74
2023/03/24 06:08:53;;;;;;;15.10;5.70;;;;;;;12.84;57.55;98534.36;107775;1266;95700;-76
2023/03/24 06:11:20;;;;;;;11.50;5.40;;;;;;;12.96;57.64;98534.01;107948;1258;95705;-77
2023/03/24 06:13:46;;;;;;;12.00;5.70;;;;;;;13.09;57.64;98533.50;108330;1257;95721;-77
2023/03/24 06:16:13;;;;;;;12.60;5.70;;;;;;;13.25;57.77;98537.00;108253;1257;95751;-76
2023/03/24 06:18:41;;;;;;;12.50;5.50;;;;;;;13.39;57.61;98538.08;108228;1257;95661;-76
2023/03/24 06:21:08;;;;;;;13.90;5.50;;;;;;;13.50;57.63;98545.13;108728;1252;95676;-76
2023/03/24 06:23:35;;;;;;;15.30;6.00;;;;;;;13.59;57.69;98548.04;108981;1248;96027;-76
2023/03/24 06:26:08;;;;;;;14.20;6.10;;;;;;;13.62;57.54;98554.66;108895;1247;96030;-76
2023/03/24 06:28:35;;;;;;;16.00;5.50;;;;;;;13.62;57.54;98554.49;109103;1247;100191;-76
2023/03/24 06:31:03;;;;;;;13.50;5.20;;;;;;;13.59;57.46;98560.27;109284;1247;95666;-76
2023/03/24 06:33:31;;;;;;;11.10;5.40;;;;;;;13.59;57.50;98559.29;109255;1247;95658;-76
2023/03/24 06:36:00;;;;;;;13.20;5.30;;;;;;;13.62;57.50;98561.48;109269;1247;95714;-76
2023/03/24 06:38:27;;;;;;;14.70;5.60;;;;;;;13.69;57.56;98555.41;109031;1248;110738;-76
2023/03/24 06:40:59;;;;;;;12.60;5.60;;;;;;;13.81;57.50;98558.27;109172;1247;95762;-76
2023/03/24 06:43:26;;;;;;;11.50;4.80;;;;;;;13.94;57.47;98558.63;108993;1247;107505;-76
2023/03/24 06:45:52;;;;;;;18.80;6.30;;;;;;;14.06;57.46;98557.39;109000;1248;96854;-76
2023/03/24 06:48:19;;;;;;;13.00;5.60;;;;;;;14.17;57.44;98556.48;109351;1247;95596;-76
2023/03/24 06:50:46;;;;;;;13.70;5.70;;;;;;;14.28;57.20;98555.97;109348;1246;95709;-76
2023/03/24 06:53:13;;;;;;;12.20;5.60;;;;;;;14.38;57.41;98560.20;109040;1247;95801;-76
2023/03/24 06:55:40;;;;;;;12.90;5.30;;;;;;;14.49;57.29;98557.35;108910;1247;95664;-76
2023/03/24 06:58:07;;;;;;;12.30;5.10;;;;;;;14.56;57.27;98562.02;109022;1247;95708;-76
2023/03/24 07:00:33;;;;;;;12.90;5.40;;;;;;;14.62;57.24;98563.43;109153;1247;95612;-76
2023/03/24 07:03:01;;;;;;;11.70;5.50;;;;;;;14.68;57.14;98561.73;109149;1247;95714;-76
2023/03/24 07:05:28;;;;;;;13.60;5.70;;;;;;;14.75;57.12;98562.05;109267;1247;95618;-76
2023/03/24 07:07:55;;;;;;;13.10;5.30;;;;;;;14.82;57.09;98563.10;109150;1250;95600;-76
2023/03/24 07:10:42;;;;;;;13.90;5.80;;;;;;;14.92;57.23;98565.67;109217;1247;95584;-76
2023/03/24 07:13:10;;;;;;;12.10;5.50;;;;;;;14.97;57.02;98566.43;109303;1248;110922;-76
2023/03/24 07:15:37;;;;;;;14.50;5.60;;;;;;;14.99;56.96;98568.73;109366;1247;100920;-76
2023/03/24 07:18:04;;;;;;;13.40;5.90;;;;;;;14.97;57.09;98566.40;109319;1250;95878;-76
2023/03/24 07:20:30;;;;;;;13.30;5.70;;;;;;;14.95;56.98;98573.20;109380;1247;95687;-77
2023/03/24 07:22:57;;;;;;;12.60;5.70;;;;;;;14.90;56.64;98568.34;109196;1247;95605;-76
2023/03/24 07:25:24;;;;;;;15.50;6.10;;;;;;;14.82;56.61;98568.79;109165;1248;95723;-76
2023/03/24 07:27:55;;;;;;;16.20;6.40;;;;;;;14.76;56.71;98571.34;109379;1247;95743;-76
2023/03/24 07:30:23;;;;;;;15.30;6.20;;;;;;;14.72;56.68;98575.30;109136;1247;107781;-76
2023/03/24 07:32:56;;;;;;;14.30;6.10;;;;;;;14.67;56.48;98578.63;109363;1246;96586;-76
2023/03/24 07:35:22;;;;;;;15.90;5.90;;;;;;;14.63;56.61;98578.35;109338;1247;95706;-76
2023/03/24 07:37:49;;;;;;;15.40;6.00;;;;;;;14.59;56.50;98578.52;109105;1248;95645;-76
2023/03/24 07:40:16;;;;;;;14.50;6.10;;;;;;;14.57;56.63;98581.23;109322;1248;95693;-77
2023/03/24 07:42:44;;;;;;;15.20;6.30;;;;;;;14.55;56.66;98583.48;109360;1246;95739;-76
2023/03/24 07:45:11;;;;;;;12.00;6.00;;;;;;;14.55;56.70;98584.25;109245;1247;95631;-76
2023/03/24 07:47:38;;;;;;;14.40;6.50;;;;;;;14.53;56.60;98582.79;109071;1247;95779;-76
2023/03/24 07:50:09;;;;;;;13.60;5.30;;;;;;;14.53;56.65;98585.80;109182;1247;96057;-76
2023/03/24 07:52:40;;;;;;;15.90;6.20;;;;;;;14.55;56.57;98578.13;109205;1247;101812;-76
2023/03/24 07:55:12;;;;;;;14.30;6.10;;;;;;;14.58;56.58;98579.95;109013;1252;107308;-76
2023/03/24 07:57:49;;;;;;;18.20;6.70;;;;;;;14.64;56.56;98583.02;108967;1247;95647;-76
2023/03/24 08:00:16;;;;;;;13.90;6.20;;;;;;;14.67;56.57;98579.90;109042;1247;95843;-77
2023/03/24 08:02:45;;;;;;;13.70;5.90;;;;;;;14.69;56.63;98581.65;109381;1247;95847;-76
2023/03/24 08:05:13;;;;;;;12.60;5.90;;;;;;;14.73;56.54;98576.98;109050;1247;100972;-76
2023/03/24 08:07:41;;;;;;;16.40;6.70;;;;;;;14.75;56.51;98581.09;109208;1247;107565;-76
2023/03/24 08:10:13;;;;;;;15.10;6.90;;;;;;;14.75;56.47;98575.21;109324;1247;95943;-76
2023/03/24 08:12:40;;;;;;;12.60;6.10;;;;;;;14.75;56.51;98577.38;109409;1247;95575;-76
2023/03/24 08:15:08;;;;;;;14.60;6.10;;;;;;;14.72;56.48;98578.73;109002;1247;111856;-76
2023/03/24 08:17:35;;;;;;;15.70;6.20;;;;;;;14.69;56.50;98577.67;108985;1247;95711;-76
2023/03/24 08:20:07;;;;;;;16.30;6.70;;;;;;;14.66;56.41;98576.55;109151;1248;95686;-76
2023/03/24 08:22:36;;;;;;;14.20;6.70;;;;;;;14.62;56.46;98576.41;109060;1247;96057;-76
2023/03/24 08:25:02;;;;;;;16.80;7.70;;;;;;;14.57;56.44;98575.45;109075;1253;95578;-76
2023/03/24 08:27:29;;;;;;;13.80;6.00;;;;;;;14.54;56.45;98575.61;109063;1248;95653;-76
2023/03/24 08:29:56;;;;;;;14.50;6.80;;;;;;;14.49;56.46;98574.94;109220;1247;95869;-76
2023/03/24 08:32:23;;;;;;;13.10;6.20;;;;;;;14.47;56.49;98577.90;109307;1246;95566;-76
2023/03/24 08:34:50;;;;;;;15.90;7.40;;;;;;;14.46;56.49;98573.81;109160;1248;95551;-76
2023/03/24 08:37:17;;;;;;;16.60;7.50;;;;;;;14.47;56.57;98572.34;109217;1248;95992;-76
2023/03/24 08:39:44;;;;;;;16.70;7.30;;;;;;;14.50;56.65;98569.90;109131;1248;101233;-76
2023/03/24 08:42:10;;;;;;;17.20;7.80;;;;;;;14.51;56.59;98569.31;109005;1251;95673;-77
2023/03/24 08:44:37;;;;;;;16.30;7.70;;;;;;;14.49;56.67;98566.78;109371;1247;95988;-76
2023/03/24 08:47:03;;;;;;;18.90;8.10;;;;;;;14.46;56.71;98563.85;109379;1247;95682;-76
2023/03/24 08:49:31;;;;;;;18.00;8.50;;;;;;;14.44;56.68;98562.59;109457;1246;96085;-76
2023/03/24 08:51:58;;;;;;;16.00;6.80;;;;;;;14.49;56.83;98564.10;109370;1247;107894;-76
2023/03/24 08:54:25;;;;;;;15.70;6.90;;;;;;;14.56;56.81;98559.20;109329;1247;95613;-76
2023/03/24 08:56:51;;;;;;;16.10;7.50;;;;;;;14.62;56.84;98556.15;109360;1247;95623;-77
2023/03/24 08:59:18;;;;;;;16.70;7.80;;;;;;;14.67;56.84;98548.79;109219;1247;158924;-77
2023/03/24 09:01:45;;;;;;;17.90;8.40;;;;;;;14.68;56.91;98543.55;109184;1250;95652;-77
2023/03/24 09:04:12;;;;;;;17.40;7.20;;;;;;;14.69;56.94;98541.67;109342;1247;95615;-76
2023/03/24 09:06:38;;;;;;;17.30;8.00;;;;;;;14.69;56.88;98529.92;109358;1247;95588;-76
2023/03/24 09:09:06;;;;;;;19.50;8.80;;;;;;;14.70;56.95;98521.11;109328;1247;95610;-76
2023/03/24 09:11:32;;;;;;;18.00;8.00;;;;;;;14.73;56.99;98517.92;108998;1248;95738;-76
2023/03/24 09:14:00;;;;;;;16.40;7.40;;;;;;;14.76;56.84;98513.14;109147;1247;95573;-76
2023/03/24 09:16:27;;;;;;;17.50;7.80;;;;;;;14.81;57.08;98509.62;109330;1247;96467;-76
2023/03/24 09:18:53;;;;;;;18.10;8.90;;;;;;;14.86;56.98;98507.33;109400;1247;95945;-76
2023/03/24 09:21:20;;;;;;;20.00;8.70;;;;;;;14.92;57.14;98504.98;109374;1247;95906;-76
2023/03/24 09:23:47;;;;;;;19.60;8.40;;;;;;;15.00;57.16;98502.75;109440;1247;95702;-76
2023/03/24 09:26:14;;;;;;;18.80;8.20;;;;;;;15.09;57.21;98503.33;109327;1247;95642;-76
2023/03/24 09:28:41;;;;;;;18.00;7.80;;;;;;;15.16;57.26;98502.02;109352;1247;95605;-76
2023/03/24 09:31:07;;;;;;;16.80;7.10;;;;;;;15.22;57.15;98502.69;109223;1247;95594;-76
2023/03/24 09:33:34;;;;;;;15.90;7.30;;;;;;;15.26;57.16;98501.09;109330;1247;95724;-76
2023/03/24 09:36:03;;;;;;;19.90;9.40;;;;;;;15.33;57.26;98501.98;109273;1247;95598;-76
2023/03/24 09:38:32;;;;;;;18.40;8.70;;;;;;;15.44;57.32;98496.37;108969;1248;95696;-76
2023/03/24 09:41:01;;;;;;;19.80;9.00;;;;;;;15.52;57.19;98490.01;109282;1247;95632;-76
2023/03/24 09:43:45;;;;;;;18.30;8.00;;;;;;;15.60;57.30;98482.77;109212;1247;109973;-76
2023/03/24 09:46:25;;;;;;;16.60;7.90;;;;;;;15.74;57.23;98475.86;109334;1246;100845;-76
2023/03/24 09:48:56;;;;;;;18.00;8.20;;;;;;;15.88;57.49;98471.94;109283;1247;107068;-76
2023/03/24 09:51:29;;;;;;;17.60;8.80;;;;;;;15.99;57.32;98464.29;109140;1248;95608;-76
2023/03/24 09:53:58;;;;;;;19.10;8.80;;;;;;;16.11;57.48;98459.70;109131;1247;95607;-76
2023/03/24 09:56:28;;;;;;;18.00;8.30;;;;;;;16.24;57.41;98447.80;109356;1246;110636;-76
2023/03/24 09:59:28;;;;;;;16.50;8.00;;;;;;;16.33;57.33;98442.91;109307;1247;100878;-76
2023/03/24 10:01:56;;;;;;;17.10;7.30;;;;;;;16.38;57.24;98435.79;108986;1247;107727;-76
2023/03/24 10:04:26;;;;;;;15.70;7.80;;;;;;;16.41;57.12;98429.18;109073;1247;95717;-76
2023/03/24 10:07:12;;;;;;;15.90;7.20;;;;;;;16.50;57.36;98424.77;109265;1247;95966;-76
2023/03/24 10:09:39;;;;;;;17.80;7.80;;;;;;;16.65;57.29;98426.43;109116;1248;111015;-76
2023/03/24 10:12:32;;;;;;;15.90;7.50;;;;;;;16.77;57.23;98424.73;109185;1250;95721;-77
2023/03/24 10:15:30;;;;;;;16.50;7.40;;;;;;;16.91;56.68;98422.92;109130;1247;107411;-76
2023/03/24 10:18:44;;;;;;;18.00;7.30;;;;;;;16.98;57.15;98424.31;109275;1248;96148;-77
2023/03/24 10:21:21;;;;;;;19.20;8.20;;;;;;;17.15;56.83;98424.13;109348;1247;95579;-77
2023/03/24 10:23:56;;;;;;;17.80;7.60;;;;;;;17.24;56.86;98420.98;109037;1247;110742;-76
2023/03/24 10:26:57;;;;;;;15.90;7.50;;;;;;;17.30;56.54;98418.14;109205;1247;100872;-77
2023/03/24 10:29:26;;;;;;;17.30;7.20;;;;;;;17.39;56.69;98412.27;109317;1247;107633;-76
2023/03/24 10:32:09;;;;;;;17.60;7.40;;;;;;;17.50;56.48;98410.91;109172;1248;95576;-77
2023/03/24 10:34:39;;;;;;;16.70;7.40;;;;;;;17.59;56.50;98405.18;109241;1247;96040;-77
2023/03/24 10:37:06;;;;;;;16.30;7.20;;;;;;;17.64;56.50;98401.23;109200;1248;111133;-77
2023/03/24 10:39:32;;;;;;;12.90;6.30;;;;;;;17.72;56.34;98396.81;109143;1247;95772;-76
2023/03/24 10:42:20;;;;;;;18.90;6.00;;;;;;;17.77;55.77;98394.80;109388;1247;107608;-77
2023/03/24 10:44:50;;;;;;;14.10;7.00;;;;;;;17.82;55.52;98394.91;109027;1247;95611;-76
2023/03/24 10:47:23;;;;;;;14.20;6.40;;;;;;;17.89;55.13;98394.76;109036;1247;95607;-77
2023/03/24 10:49:57;;;;;;;;;;;;;;;17.95;55.52;98396.23;109159;1248;110913;-77
2023/03/24 10:52:24;;;;;;;;;;;;;;;17.99;55.37;98392.50;109245;1247;100847;-76
2023/03/24 10:55:03;;;;;;;11.70;6.00;;;;;;;17.97;55.32;98388.95;109165;1247;107694;-76
2023/03/24 10:57:29;;;;;;;11.70;6.00;;;;;;;17.94;55.40;98382.66;109298;1247;95608;-76
2023/03/24 11:00:00;;;;;;;15.00;6.60;;;;;;;17.91;54.99;98381.09;109354;1247;95756;-76
2023/03/24 11:02:32;;;;;;;10.70;5.70;;;;;;;17.86;54.89;98378.50;109102;1247;110361;-76
2023/03/24 11:05:21;;;;;;;13.70;5.80;;;;;;;17.84;55.02;98371.04;109069;1247;100888;-76
2023/03/24 11:07:50;;;;;;;16.00;6.80;;;;;;;17.81;54.10;98370.68;109165;1247;107880;-76
2023/03/24 11:10:23;;;;;;;13.10;6.00;;;;;;;17.81;54.66;98370.88;109116;1248;95657;-77
2023/03/24 11:12:53;;;;;;;12.40;6.20;;;;;;;17.85;54.43;98368.77;109046;1248;95560;-77
2023/03/24 11:15:29;;;;;;;16.10;6.60;;;;;;;17.92;54.11;98361.14;109388;1247;111403;-77
2023/03/24 11:18:05;;;;;;;13.20;6.70;;;;;;;18.02;54.24;98363.51;109134;1248;98861;-76
2023/03/24 11:20:36;;;;;;;17.10;6.70;;;;;;;18.11;54.24;98360.79;109281;1247;106266;-76
2023/03/24 11:23:13;;;;;;;15.20;6.60;;;;;;;18.27;54.26;98353.66;109325;1247;95558;-76
2023/03/24 11:25:44;;;;;;;21.40;8.30;;;;;;;18.39;54.25;98354.31;109213;1248;95702;-77
2023/03/24 11:28:19;;;;;;;16.90;7.80;;;;;;;18.49;53.76;98349.30;109195;1248;110938;-77
2023/03/24 11:30:51;;;;;;;16.80;6.00;;;;;;;18.57;53.48;98348.14;109029;1248;100936;-77
2023/03/24 11:33:25;;;;;;;13.40;6.10;;;;;;;18.60;53.06;98342.20;108992;1254;108915;-77
2023/03/24 11:36:25;;;;;;;;;;;;;;;18.62;53.24;98339.83;109175;1247;95571;-77
2023/03/24 11:39:25;;;;;;;15.50;6.30;;;;;;;18.65;53.18;98332.20;109028;1248;95659;-77
2023/03/24 11:42:11;;;;;;;12.40;5.50;;;;;;;18.63;52.92;98330.23;109176;1248;110915;-77
2023/03/24 11:44:38;;;;;;;13.40;6.60;;;;;;;18.52;52.78;98325.27;109232;1247;101103;-77
2023/03/24 11:47:27;;;;;;;14.50;6.10;;;;;;;18.42;52.27;98322.63;109347;1247;95669;-77
2023/03/24 11:49:57;;;;;;;15.90;6.40;;;;;;;18.27;52.25;98317.73;109126;1248;95744;-76
2023/03/24 11:52:30;;;;;;;14.10;6.60;;;;;;;18.13;51.77;98317.52;109337;1247;95638;-77
2023/03/24 11:54:57;;;;;;;15.70;6.80;;;;;;;18.05;51.82;98315.59;109309;1247;111497;-77
2023/03/24 11:57:37;;;;;;;16.60;6.20;;;;;;;17.97;51.32;98315.77;109152;1247;95994;-77
2023/03/24 12:00:24;;;;;;;13.90;6.30;;;;;;;17.87;51.43;98321.93;109167;1250;107608;-77
2023/03/24 12:03:28;;;;;;;14.80;6.20;;;;;;;17.77;51.40;98317.00;109380;1247;95569;-77
2023/03/24 12:06:31;;;;;;;14.80;6.90;;;;;;;17.73;51.25;98316.15;109350;1247;95538;-76
2023/03/24 12:09:06;;;;;;;14.50;7.20;;;;;;;17.74;51.10;98316.42;109122;1248;110935;-77
2023/03/24 12:11:45;;;;;;;16.30;6.70;;;;;;;17.75;51.31;98310.75;109181;1253;100574;-77
2023/03/24 12:14:22;;;;;;;14.00;6.90;;;;;;;17.75;51.07;98309.52;109384;1247;107227;-77
2023/03/24 12:17:07;;;;;;;15.90;6.80;;;;;;;17.68;50.19;98303.02;109068;1247;95551;-76
2023/03/24 12:19:52;;;;;;;15.90;6.40;;;;;;;17.66;50.75;98305.84;109142;1247;95544;-77
2023/03/24 12:22:32;;;;;;;12.40;6.00;;;;;;;17.68;50.98;98300.70;109190;1248;110849;-77
2023/03/24 12:25:14;;;;;;;15.50;7.20;;;;;;;17.75;50.89;98297.07;109172;1247;100559;-77
2023/03/24 12:27:56;;;;;;;13.60;6.30;;;;;;;17.81;50.88;98289.00;109130;1248;107615;-76
2023/03/24 12:30:46;;;;;;;15.00;6.70;;;;;;;17.85;50.69;98289.48;109303;1247;95616;-76
2023/03/24 12:33:14;;;;;;;19.50;7.60;;;;;;;17.81;50.31;98284.07;109157;1250;95588;-76
2023/03/24 12:36:06;;;;;;;16.80;7.50;;;;;;;17.77;50.19;98280.55;109382;1247;95848;-77
2023/03/24 12:38:49;;;;;;;16.50;8.10;;;;;;;17.70;49.44;98274.30;109351;1247;100829;-77
2023/03/24 12:41:48;;;;;;;18.60;7.70;;;;;;;17.63;50.12;98279.42;109253;1247;105618;-77
2023/03/24 12:44:37;;;;;;;20.80;7.20;;;;;;;17.56;49.99;98268.10;109048;1247;95604;-77
2023/03/24 12:47:20;;;;;;;18.20;7.40;;;;;;;17.48;50.10;98275.63;109396;1247;95581;-77
2023/03/24 12:50:14;;;;;;;16.50;8.00;;;;;;;17.48;50.13;98271.55;109076;1248;111256;-77
2023/03/24 12:53:29;;;;;;;16.40;7.70;;;;;;;17.43;49.71;98267.60;109112;1247;101004;-76
2023/03/24 12:56:09;;;;;;;20.30;7.20;;;;;;;17.33;49.79;98268.15;108562;1255;107825;-77
2023/03/24 12:59:09;;;;;;;16.10;7.10;;;;;;;17.31;49.95;98265.67;108308;1255;95865;-76
2023/03/24 13:01:42;;;;;;;19.60;8.30;;;;;;;17.30;49.88;98263.52;108821;1248;95582;-76
2023/03/24 13:04:24;;;;;;;18.40;8.50;;;;;;;17.28;49.83;98257.86;109001;1250;112251;-76
2023/03/24 13:06:58;;;;;;;17.40;8.40;;;;;;;17.27;49.84;98260.21;109297;1247;101212;-76
2023/03/24 13:09:45;;;;;;;18.80;8.40;;;;;;;17.31;49.80;98254.05;109065;1247;108392;-76
2023/03/24 13:12:14;;;;;;;20.50;8.70;;;;;;;17.37;49.72;98254.63;109309;1247;95638;-76
2023/03/24 13:15:13;;;;;;;19.10;8.70;;;;;;;17.48;49.93;98247.98;109063;1247;95736;-80
2023/03/24 13:17:54;;;;;;;18.80;8.40;;;;;;;17.63;49.88;98242.89;109048;1247;111321;-77
2023/03/24 13:20:30;;;;;;;18.30;7.80;;;;;;;17.71;49.80;98241.77;108848;1247;101338;-78
2023/03/24 13:23:04;;;;;;;16.20;8.50;;;;;;;17.73;49.66;98234.39;108983;1247;106167;-78
2023/03/24 13:26:02;;;;;;;17.40;8.50;;;;;;;17.74;49.51;98237.01;108918;1254;95962;-78
2023/03/24 13:28:53;;;;;;;17.80;7.70;;;;;;;17.74;49.54;98234.14;109136;1247;95755;-78
2023/03/24 13:31:23;;;;;;;18.80;8.30;;;;;;;17.78;49.43;98229.91;108965;1247;111399;-77
2023/03/24 13:33:52;;;;;;;19.70;8.60;;;;;;;17.77;49.57;98226.73;109338;1247;100802;-78
2023/03/24 13:36:36;;;;;;;17.20;9.30;;;;;;;17.78;49.37;98220.20;109292;1251;107602;-78
2023/03/24 13:39:13;;;;;;;20.00;9.70;;;;;;;17.83;49.36;98221.25;109289;1248;95638;-78
2023/03/24 13:41:40;;;;;;;19.40;9.30;;;;;;;17.85;49.48;98217.39;109318;1247;95512;-77
2023/03/24 13:44:18;;;;;;;22.70;10.00;;;;;;;17.86;49.12;98216.05;108930;1247;111378;-77
2023/03/24 13:47:03;;;;;;;17.80;8.20;;;;;;;17.84;49.25;98213.00;109030;1248;100602;-77
2023/03/24 13:49:31;;;;;;;17.70;8.30;;;;;;;17.84;49.17;98201.00;108996;1248;107391;-78
2023/03/24 13:52:02;;;;;;;14.90;7.60;;;;;;;17.81;49.13;98198.30;108875;1251;95655;-77
2023/03/24 13:54:29;;;;;;;17.80;8.70;;;;;;;17.78;49.12;98194.79;109165;1250;95941;-77
2023/03/24 13:57:14;;;;;;;19.10;8.40;;;;;;;17.77;49.15;98193.27;109264;1247;110854;-77
2023/03/24 13:59:58;;;;;;;20.30;8.40;;;;;;;17.79;49.24;98191.38;109016;1247;101017;-78
2023/03/24 14:02:28;;;;;;;18.50;8.30;;;;;;;17.80;48.97;98188.95;109102;1248;107185;-77
2023/03/24 14:05:07;;;;;;;19.70;8.40;;;;;;;17.77;49.08;98182.11;109325;1247;95799;-77
2023/03/24 14:07:40;;;;;;;16.40;8.20;;;;;;;17.76;49.01;98178.09;109328;1247;95602;-77
2023/03/24 14:10:12;;;;;;;16.80;7.10;;;;;;;17.77;49.10;98169.08;109360;1247;112278;-77
2023/03/24 14:12:57;;;;;;;19.30;8.40;;;;;;;17.77;49.00;98169.58;109287;1247;100629;-77
2023/03/24 14:15:43;;;;;;;17.80;7.90;;;;;;;17.74;48.98;98166.14;109283;1247;107850;-77
2023/03/24 14:18:23;;;;;;;23.20;10.00;;;;;;;17.73;49.01;98167.40;109261;1248;95785;-77
2023/03/24 14:20:55;;;;;;;20.40;8.70;;;;;;;17.74;49.04;98163.17;109379;1248;95687;-77
2023/03/24 14:23:28;;;;;;;17.10;7.50;;;;;;;17.74;49.04;98161.33;109352;1247;111175;-78
2023/03/24 14:25:55;;;;;;;21.90;8.40;;;;;;;17.71;48.92;98162.38;109344;1251;100575;-77
2023/03/24 14:28:26;;;;;;;19.30;7.70;;;;;;;17.70;48.96;98160.58;109080;1248;107464;-77
2023/03/24 14:31:11;;;;;;;19.20;8.70;;;;;;;17.68;48.91;98157.31;109067;1247;95718;-77
2023/03/24 14:33:39;;;;;;;15.90;7.50;;;;;;;17.65;48.82;98153.91;109302;1247;95526;-77
2023/03/24 14:36:10;;;;;;;16.00;7.30;;;;;;;17.62;48.97;98148.88;109142;1248;111274;-77
2023/03/24 14:38:42;;;;;;;19.00;8.70;;;;;;;17.60;48.89;98144.87;109361;1247;100724;-77
2023/03/24 14:41:15;;;;;;;13.70;7.00;;;;;;;17.55;48.81;98141.82;109107;1248;106989;-77
2023/03/24 14:43:45;;;;;;;17.00;7.80;;;;;;;17.51;48.81;98140.37;108985;1248;95684;-77
2023/03/24 14:46:21;;;;;;;16.50;7.30;;;;;;;17.46;48.72;98138.09;109265;1247;95641;-77
2023/03/24 14:49:06;;;;;;;14.90;6.60;;;;;;;17.41;48.71;98135.23;109105;1248;111948;-77
2023/03/24 14:51:42;;;;;;;16.30;7.20;;;;;;;17.35;48.46;98133.05;108995;1248;101452;-77
2023/03/24 14:54:34;;;;;;;15.60;7.20;;;;;;;17.30;48.53;98130.27;109236;1248;107631;-77
2023/03/24 14:57:03;;;;;;;14.20;7.30;;;;;;;17.24;48.39;98126.41;108996;1253;95674;-77
2023/03/24 14:59:55;;;;;;;15.90;7.00;;;;;;;17.18;47.92;98120.96;109216;1248;95598;-77
2023/03/24 15:02:28;;;;;;;15.80;7.30;;;;;;;17.11;48.23;98118.39;108991;1248;111159;-77
2023/03/24 15:05:16;;;;;;;14.20;6.60;;;;;;;17.06;48.17;98112.46;109314;1248;101297;-75
2023/03/24 15:07:45;;;;;;;16.60;7.80;;;;;;;17.02;48.28;98114.94;109270;1250;107266;-75
2023/03/24 15:10:19;;;;;;;18.40;7.50;;;;;;;16.99;48.19;98114.72;108991;1251;95698;-78
2023/03/24 15:12:48;;;;;;;18.70;7.70;;;;;;;16.95;48.35;98110.14;109281;1252;95552;-76
2023/03/24 15:15:18;;;;;;;16.10;7.60;;;;;;;16.91;48.04;98107.75;109009;1247;110842;-77
2023/03/24 15:17:45;;;;;;;15.80;7.60;;;;;;;16.88;48.30;98107.04;109146;1248;100998;-76
2023/03/24 15:20:32;;;;;;;18.70;7.80;;;;;;;16.84;48.30;98102.69;109240;1251;95591;-76